SBBG

Comandante Gustavo Kraemer Airport

Bagé, Brazil
TAF SBBG 141515Z 1418/1518 27010KT 9999 OVC035 TX31/1418Z TN20/1508Z BECMG 1418/1420 26008KT BKN025 FEW030TCU TEMPO 1422/1506 3000 TSRA BKN010 FEW030CB BECMG 1506/1508 6000 BKN008 BECMG 1510/1512 8000 SCT010 RMK PDV
Issued Valid From Valid To
Dec-14 @ 15:15 UTC
(16 hours ago)
Dec-14 @ 18:00 UTC
(13 hours ago)
Dec-15 @ 18:00 UTC
(in 11 hours)
Dec-14 @ 18:00 to Dec-15 @ 18:00
TAF SBBG 141515Z 1418/1518 27010KT 9999 OVC035 TX31/1418Z TN20/1508Z
Wind Visibility Clouds
270° at 10 knots 10,000+ meters
  • Overcast at 3,500' AGL
Expired Click to View Dec-14 @ 18:00 to Dec-15 @ 06:00
BECMG 1418/1420 26008KT BKN025 FEW030TCU
Wind Visibility Clouds
260° at 8 knots 10,000+ meters
  • Broken at 2,500' AGL
  • Few at 3,000' AGL
Expired Click to View Dec-14 @ 22:00 to Dec-15 @ 06:00
TEMPO 1422/1506 3000 TSRA BKN010 FEW030CB
Visibility Clouds Conditions
2,993 meters
  • Broken at 1,000' AGL
  • Few at 3,000' AGL
  • Thunderstorm
  • Rain
Becoming Dec-15 @ 06:00 to Dec-15 @ 10:00
BECMG 1506/1508 6000 BKN008
Wind Visibility Clouds
260° at 8 knots 6,003 meters
  • Broken at 800' AGL
Becoming Dec-15 @ 10:00 to Dec-15 @ 18:00
BECMG 1510/1512 8000 SCT010 RMK PDV
Wind Visibility Clouds
260° at 8 knots 7,998 meters
  • Scattered at 1,000' AGL
TAF SBBG 141515Z 1418/1518 27010KT 9999 OVC035 TX31/1418Z TN20/1508Z BECMG 1418/1420 26008KT BKN025 FEW030TCU TEMPO 1422/1506 3000 TSRA BKN010 FEW030CB BECMG 1506/1508 6000 BKN008 BECMG 1510/1512 8000 SCT010 RMK PDV
Issued Dec-14 @ 15:15 UTC
(16 hours ago)
Valid From Dec-14 @ 18:00 UTC
(13 hours ago)
Valid To Dec-15 @ 18:00 UTC
(in 11 hours)
Dec-14 @ 18:00 - Dec-15 @ 18:00
Wind Visibility
270° at 10 knots 10,000+ meters
Clouds
  • Overcast at 3,500' AGL
Dec-14 @ 18:00 - Dec-15 @ 06:00
Wind Visibility
260° at 8 knots 10,000+ meters
Clouds
  • Broken at 2,500' AGL
  • Few at 3,000' AGL
Dec-14 @ 22:00 - Dec-15 @ 06:00
Clouds
  • Broken at 1,000' AGL
  • Few at 3,000' AGL
Conditions
  • Thunderstorm
  • Rain
Becoming Dec-15 @ 06:00 - Dec-15 @ 10:00
Wind Visibility
260° at 8 knots 6,003 meters
Clouds
  • Broken at 800' AGL
Becoming Dec-15 @ 10:00 - Dec-15 @ 18:00
Wind Visibility
260° at 8 knots 7,998 meters
Clouds
  • Scattered at 1,000' AGL